sensor_id;sensor_type;location;lat;lon;timestamp;P1;durP1;ratioP1;P2;durP2;ratioP2
84381;SDS011;74572;51.834;5.820;2024-01-15T00:02:09;3.22;;;0.50;;
84381;SDS011;74572;51.834;5.820;2024-01-15T00:04:40;1.67;;;0.55;;
84381;SDS011;74572;51.834;5.820;2024-01-15T00:07:09;0.90;;;0.45;;
84381;SDS011;74572;51.834;5.820;2024-01-15T00:09:35;1.88;;;0.60;;
84381;SDS011;74572;51.834;5.820;2024-01-15T00:12:00;4.95;;;0.90;;
84381;SDS011;74572;51.834;5.820;2024-01-15T00:14:27;2.17;;;0.52;;
84381;SDS011;74572;51.834;5.820;2024-01-15T00:16:54;2.83;;;0.93;;
84381;SDS011;74572;51.834;5.820;2024-01-15T00:19:23;2.42;;;0.98;;
84381;SDS011;74572;51.834;5.820;2024-01-15T00:21:49;6.03;;;0.90;;
84381;SDS011;74572;51.834;5.820;2024-01-15T00:24:15;1.88;;;0.68;;
84381;SDS011;74572;51.834;5.820;2024-01-15T00:26:43;1.00;;;0.60;;
84381;SDS011;74572;51.834;5.820;2024-01-15T00:29:08;3.40;;;0.82;;
84381;SDS011;74572;51.834;5.820;2024-01-15T00:31:34;0.63;;;0.22;;
84381;SDS011;74572;51.834;5.820;2024-01-15T00:34:04;2.78;;;0.52;;
84381;SDS011;74572;51.834;5.820;2024-01-15T00:36:30;2.10;;;0.50;;
84381;SDS011;74572;51.834;5.820;2024-01-15T00:38:56;4.13;;;0.70;;
84381;SDS011;74572;51.834;5.820;2024-01-15T00:41:22;1.98;;;0.70;;
84381;SDS011;74572;51.834;5.820;2024-01-15T00:43:47;3.38;;;0.93;;
84381;SDS011;74572;51.834;5.820;2024-01-15T00:46:17;2.08;;;0.90;;
84381;SDS011;74572;51.834;5.820;2024-01-15T00:48:45;0.98;;;0.70;;
84381;SDS011;74572;51.834;5.820;2024-01-15T00:51:12;6.10;;;1.38;;
84381;SDS011;74572;51.834;5.820;2024-01-15T00:53:39;2.80;;;1.13;;
84381;SDS011;74572;51.834;5.820;2024-01-15T00:56:05;3.55;;;1.15;;
84381;SDS011;74572;51.834;5.820;2024-01-15T00:58:33;2.45;;;0.93;;
84381;SDS011;74572;51.834;5.820;2024-01-15T01:00:58;3.72;;;1.70;;
84381;SDS011;74572;51.834;5.820;2024-01-15T01:03:24;5.03;;;1.83;;
84381;SDS011;74572;51.834;5.820;2024-01-15T01:05:51;5.65;;;1.90;;
84381;SDS011;74572;51.834;5.820;2024-01-15T01:08:17;3.92;;;1.63;;
84381;SDS011;74572;51.834;5.820;2024-01-15T01:10:44;4.47;;;1.83;;
84381;SDS011;74572;51.834;5.820;2024-01-15T01:13:09;2.42;;;1.40;;
84381;SDS011;74572;51.834;5.820;2024-01-15T01:15:38;4.28;;;1.80;;
84381;SDS011;74572;51.834;5.820;2024-01-15T01:18:05;3.90;;;2.20;;
84381;SDS011;74572;51.834;5.820;2024-01-15T01:20:31;4.97;;;2.20;;
84381;SDS011;74572;51.834;5.820;2024-01-15T01:22:56;4.35;;;2.22;;
84381;SDS011;74572;51.834;5.820;2024-01-15T01:25:22;5.18;;;1.85;;
84381;SDS011;74572;51.834;5.820;2024-01-15T01:27:50;3.08;;;2.20;;
84381;SDS011;74572;51.834;5.820;2024-01-15T01:30:27;3.90;;;2.10;;
84381;SDS011;74572;51.834;5.820;2024-01-15T01:32:53;4.75;;;1.70;;
84381;SDS011;74572;51.834;5.820;2024-01-15T01:35:19;2.72;;;1.00;;
84381;SDS011;74572;51.834;5.820;2024-01-15T01:37:45;5.03;;;1.42;;
84381;SDS011;74572;51.834;5.820;2024-01-15T01:40:11;4.13;;;2.22;;
84381;SDS011;74572;51.834;5.820;2024-01-15T01:42:36;3.92;;;1.58;;
84381;SDS011;74572;51.834;5.820;2024-01-15T01:45:01;4.68;;;2.05;;
84381;SDS011;74572;51.834;5.820;2024-01-15T01:47:28;9.68;;;1.58;;
84381;SDS011;74572;51.834;5.820;2024-01-15T01:49:56;2.05;;;1.38;;
84381;SDS011;74572;51.834;5.820;2024-01-15T01:52:21;13.35;;;1.85;;
84381;SDS011;74572;51.834;5.820;2024-01-15T01:54:47;3.08;;;1.20;;
84381;SDS011;74572;51.834;5.820;2024-01-15T01:57:13;5.78;;;1.13;;
84381;SDS011;74572;51.834;5.820;2024-01-15T01:59:40;1.60;;;1.50;;
84381;SDS011;74572;51.834;5.820;2024-01-15T02:02:06;2.95;;;0.70;;
84381;SDS011;74572;51.834;5.820;2024-01-15T02:04:32;5.90;;;0.80;;
84381;SDS011;74572;51.834;5.820;2024-01-15T02:06:59;3.10;;;0.98;;
84381;SDS011;74572;51.834;5.820;2024-01-15T02:09:25;4.43;;;1.40;;
84381;SDS011;74572;51.834;5.820;2024-01-15T02:11:50;2.03;;;0.90;;
84381;SDS011;74572;51.834;5.820;2024-01-15T02:14:18;3.22;;;1.25;;
84381;SDS011;74572;51.834;5.820;2024-01-15T02:16:46;6.68;;;1.10;;
84381;SDS011;74572;51.834;5.820;2024-01-15T02:19:16;3.05;;;1.17;;
84381;SDS011;74572;51.834;5.820;2024-01-15T02:21:42;4.18;;;1.40;;
84381;SDS011;74572;51.834;5.820;2024-01-15T02:24:07;4.43;;;1.05;;
84381;SDS011;74572;51.834;5.820;2024-01-15T02:26:33;5.38;;;1.23;;
84381;SDS011;74572;51.834;5.820;2024-01-15T02:29:01;9.07;;;1.50;;
84381;SDS011;74572;51.834;5.820;2024-01-15T02:31:26;2.05;;;1.00;;
84381;SDS011;74572;51.834;5.820;2024-01-15T02:33:52;3.85;;;1.50;;
84381;SDS011;74572;51.834;5.820;2024-01-15T02:36:18;2.08;;;1.23;;
84381;SDS011;74572;51.834;5.820;2024-01-15T02:38:43;5.50;;;1.25;;
84381;SDS011;74572;51.834;5.820;2024-01-15T02:41:09;2.03;;;0.98;;
84381;SDS011;74572;51.834;5.820;2024-01-15T02:43:36;6.03;;;1.00;;
84381;SDS011;74572;51.834;5.820;2024-01-15T02:46:01;6.78;;;1.80;;
84381;SDS011;74572;51.834;5.820;2024-01-15T02:48:27;4.18;;;2.53;;
84381;SDS011;74572;51.834;5.820;2024-01-15T02:50:52;3.75;;;1.15;;
84381;SDS011;74572;51.834;5.820;2024-01-15T02:53:17;4.35;;;1.33;;
84381;SDS011;74572;51.834;5.820;2024-01-15T02:55:43;3.70;;;1.08;;
84381;SDS011;74572;51.834;5.820;2024-01-15T02:58:08;2.65;;;1.10;;
84381;SDS011;74572;51.834;5.820;2024-01-15T03:00:35;5.95;;;1.40;;
84381;SDS011;74572;51.834;5.820;2024-01-15T03:03:01;3.35;;;1.10;;
84381;SDS011;74572;51.834;5.820;2024-01-15T03:05:27;3.05;;;1.10;;
84381;SDS011;74572;51.834;5.820;2024-01-15T03:07:54;4.82;;;1.10;;
84381;SDS011;74572;51.834;5.820;2024-01-15T03:10:19;8.90;;;1.75;;
84381;SDS011;74572;51.834;5.820;2024-01-15T03:12:44;2.47;;;0.80;;
84381;SDS011;74572;51.834;5.820;2024-01-15T03:15:11;4.90;;;1.20;;
84381;SDS011;74572;51.834;5.820;2024-01-15T03:17:37;1.42;;;0.70;;
84381;SDS011;74572;51.834;5.820;2024-01-15T03:20:03;1.00;;;0.70;;
84381;SDS011;74572;51.834;5.820;2024-01-15T03:22:29;5.53;;;1.40;;
84381;SDS011;74572;51.834;5.820;2024-01-15T03:24:55;2.10;;;1.00;;
84381;SDS011;74572;51.834;5.820;2024-01-15T03:27:21;0.80;;;0.65;;
84381;SDS011;74572;51.834;5.820;2024-01-15T03:29:46;6.20;;;1.35;;
84381;SDS011;74572;51.834;5.820;2024-01-15T03:32:11;3.85;;;1.45;;
84381;SDS011;74572;51.834;5.820;2024-01-15T03:34:38;2.67;;;0.95;;
84381;SDS011;74572;51.834;5.820;2024-01-15T03:37:05;4.45;;;1.30;;
84381;SDS011;74572;51.834;5.820;2024-01-15T03:39:30;1.90;;;0.82;;
84381;SDS011;74572;51.834;5.820;2024-01-15T03:41:56;6.25;;;1.25;;
84381;SDS011;74572;51.834;5.820;2024-01-15T03:44:22;3.05;;;1.10;;
84381;SDS011;74572;51.834;5.820;2024-01-15T03:46:48;4.05;;;1.17;;
84381;SDS011;74572;51.834;5.820;2024-01-15T03:49:14;1.52;;;0.88;;
84381;SDS011;74572;51.834;5.820;2024-01-15T03:51:40;3.05;;;0.82;;
84381;SDS011;74572;51.834;5.820;2024-01-15T03:54:06;6.25;;;0.90;;
84381;SDS011;74572;51.834;5.820;2024-01-15T03:56:32;3.97;;;0.73;;
84381;SDS011;74572;51.834;5.820;2024-01-15T03:58:57;2.80;;;0.90;;
84381;SDS011;74572;51.834;5.820;2024-01-15T04:01:23;5.10;;;1.00;;
84381;SDS011;74572;51.834;5.820;2024-01-15T04:03:48;1.63;;;0.70;;
84381;SDS011;74572;51.834;5.820;2024-01-15T04:06:13;5.78;;;1.02;;
84381;SDS011;74572;51.834;5.820;2024-01-15T04:08:39;5.25;;;1.02;;
84381;SDS011;74572;51.834;5.820;2024-01-15T04:11:04;1.63;;;0.68;;
84381;SDS011;74572;51.834;5.820;2024-01-15T04:13:33;4.37;;;1.10;;
84381;SDS011;74572;51.834;5.820;2024-01-15T04:16:00;4.10;;;0.70;;
84381;SDS011;74572;51.834;5.820;2024-01-15T04:18:25;3.70;;;0.90;;
84381;SDS011;74572;51.834;5.820;2024-01-15T04:20:51;3.03;;;1.55;;
84381;SDS011;74572;51.834;5.820;2024-01-15T04:23:16;1.00;;;0.57;;
84381;SDS011;74572;51.834;5.820;2024-01-15T04:25:42;4.20;;;0.70;;
84381;SDS011;74572;51.834;5.820;2024-01-15T04:28:09;3.33;;;0.95;;
84381;SDS011;74572;51.834;5.820;2024-01-15T04:30:34;5.57;;;0.47;;
84381;SDS011;74572;51.834;5.820;2024-01-15T04:33:00;7.03;;;0.82;;
84381;SDS011;74572;51.834;5.820;2024-01-15T04:35:25;2.20;;;0.38;;
84381;SDS011;74572;51.834;5.820;2024-01-15T04:37:51;1.73;;;0.57;;
84381;SDS011;74572;51.834;5.820;2024-01-15T04:40:17;7.20;;;0.63;;
84381;SDS011;74572;51.834;5.820;2024-01-15T04:42:42;1.55;;;0.60;;
84381;SDS011;74572;51.834;5.820;2024-01-15T04:45:11;4.45;;;0.73;;
84381;SDS011;74572;51.834;5.820;2024-01-15T04:47:36;3.17;;;0.40;;
84381;SDS011;74572;51.834;5.820;2024-01-15T04:50:02;2.80;;;0.63;;
84381;SDS011;74572;51.834;5.820;2024-01-15T04:52:30;3.85;;;0.60;;
84381;SDS011;74572;51.834;5.820;2024-01-15T04:54:55;2.05;;;0.80;;
84381;SDS011;74572;51.834;5.820;2024-01-15T04:57:21;1.90;;;0.50;;
84381;SDS011;74572;51.834;5.820;2024-01-15T04:59:46;4.83;;;0.57;;
84381;SDS011;74572;51.834;5.820;2024-01-15T05:02:11;3.15;;;0.52;;
84381;SDS011;74572;51.834;5.820;2024-01-15T05:04:37;1.40;;;0.52;;
84381;SDS011;74572;51.834;5.820;2024-01-15T05:07:02;6.33;;;0.80;;
84381;SDS011;74572;51.834;5.820;2024-01-15T05:09:29;4.78;;;0.70;;
84381;SDS011;74572;51.834;5.820;2024-01-15T05:11:54;4.07;;;1.00;;
84381;SDS011;74572;51.834;5.820;2024-01-15T05:14:20;1.80;;;0.55;;
84381;SDS011;74572;51.834;5.820;2024-01-15T05:16:49;3.43;;;0.63;;
84381;SDS011;74572;51.834;5.820;2024-01-15T05:19:14;2.17;;;0.47;;
84381;SDS011;74572;51.834;5.820;2024-01-15T05:21:40;2.25;;;0.50;;
84381;SDS011;74572;51.834;5.820;2024-01-15T05:24:07;2.50;;;0.77;;
84381;SDS011;74572;51.834;5.820;2024-01-15T05:26:33;5.80;;;1.50;;
84381;SDS011;74572;51.834;5.820;2024-01-15T05:28:59;1.55;;;0.88;;
84381;SDS011;74572;51.834;5.820;2024-01-15T05:31:24;4.45;;;1.00;;
84381;SDS011;74572;51.834;5.820;2024-01-15T05:33:50;4.45;;;1.40;;
84381;SDS011;74572;51.834;5.820;2024-01-15T05:36:15;2.87;;;1.40;;
84381;SDS011;74572;51.834;5.820;2024-01-15T05:38:41;6.75;;;1.58;;
84381;SDS011;74572;51.834;5.820;2024-01-15T05:41:06;2.20;;;1.05;;
84381;SDS011;74572;51.834;5.820;2024-01-15T05:43:32;1.30;;;0.93;;
84381;SDS011;74572;51.834;5.820;2024-01-15T05:45:58;2.13;;;1.10;;
84381;SDS011;74572;51.834;5.820;2024-01-15T05:48:23;5.33;;;1.27;;
84381;SDS011;74572;51.834;5.820;2024-01-15T05:50:48;1.50;;;0.90;;
84381;SDS011;74572;51.834;5.820;2024-01-15T05:53:14;3.28;;;1.17;;
84381;SDS011;74572;51.834;5.820;2024-01-15T05:55:39;2.40;;;1.10;;
84381;SDS011;74572;51.834;5.820;2024-01-15T05:58:06;6.63;;;1.30;;
84381;SDS011;74572;51.834;5.820;2024-01-15T06:00:32;2.08;;;1.27;;
84381;SDS011;74572;51.834;5.820;2024-01-15T06:03:00;2.53;;;0.85;;
84381;SDS011;74572;51.834;5.820;2024-01-15T06:05:26;1.85;;;0.93;;
84381;SDS011;74572;51.834;5.820;2024-01-15T06:07:52;2.60;;;1.45;;
84381;SDS011;74572;51.834;5.820;2024-01-15T06:10:17;3.58;;;1.48;;
84381;SDS011;74572;51.834;5.820;2024-01-15T06:12:43;2.25;;;1.60;;
84381;SDS011;74572;51.834;5.820;2024-01-15T06:15:09;3.28;;;1.35;;
84381;SDS011;74572;51.834;5.820;2024-01-15T06:17:35;3.10;;;1.63;;
84381;SDS011;74572;51.834;5.820;2024-01-15T06:20:01;2.45;;;1.77;;
84381;SDS011;74572;51.834;5.820;2024-01-15T06:22:28;3.45;;;1.77;;
84381;SDS011;74572;51.834;5.820;2024-01-15T06:24:53;4.47;;;2.00;;
84381;SDS011;74572;51.834;5.820;2024-01-15T06:27:19;2.78;;;1.40;;
84381;SDS011;74572;51.834;5.820;2024-01-15T06:29:45;3.17;;;1.92;;
84381;SDS011;74572;51.834;5.820;2024-01-15T06:32:31;4.80;;;1.20;;
84381;SDS011;74572;51.834;5.820;2024-01-15T06:34:57;3.40;;;1.50;;
84381;SDS011;74572;51.834;5.820;2024-01-15T06:37:24;3.25;;;1.83;;
84381;SDS011;74572;51.834;5.820;2024-01-15T06:39:50;4.55;;;2.17;;
84381;SDS011;74572;51.834;5.820;2024-01-15T06:42:15;4.68;;;1.60;;
84381;SDS011;74572;51.834;5.820;2024-01-15T06:44:40;4.13;;;1.63;;
84381;SDS011;74572;51.834;5.820;2024-01-15T06:47:06;4.65;;;1.50;;
84381;SDS011;74572;51.834;5.820;2024-01-15T06:49:31;3.33;;;1.38;;
84381;SDS011;74572;51.834;5.820;2024-01-15T06:51:58;4.47;;;1.98;;
84381;SDS011;74572;51.834;5.820;2024-01-15T06:54:24;3.72;;;2.10;;
84381;SDS011;74572;51.834;5.820;2024-01-15T06:56:51;3.33;;;1.90;;
84381;SDS011;74572;51.834;5.820;2024-01-15T06:59:17;2.13;;;1.27;;
84381;SDS011;74572;51.834;5.820;2024-01-15T07:01:42;2.92;;;1.52;;
84381;SDS011;74572;51.834;5.820;2024-01-15T07:04:09;4.50;;;2.13;;
84381;SDS011;74572;51.834;5.820;2024-01-15T07:06:35;2.13;;;1.27;;
84381;SDS011;74572;51.834;5.820;2024-01-15T07:09:00;1.95;;;0.93;;
84381;SDS011;74572;51.834;5.820;2024-01-15T07:11:27;5.13;;;1.45;;
84381;SDS011;74572;51.834;5.820;2024-01-15T07:13:55;2.55;;;1.77;;
84381;SDS011;74572;51.834;5.820;2024-01-15T07:16:21;3.35;;;1.67;;
84381;SDS011;74572;51.834;5.820;2024-01-15T07:18:46;3.08;;;1.90;;
84381;SDS011;74572;51.834;5.820;2024-01-15T07:21:16;3.40;;;1.73;;
84381;SDS011;74572;51.834;5.820;2024-01-15T07:23:41;5.03;;;1.40;;
84381;SDS011;74572;51.834;5.820;2024-01-15T07:26:08;3.22;;;2.15;;
84381;SDS011;74572;51.834;5.820;2024-01-15T07:28:34;3.47;;;1.58;;
84381;SDS011;74572;51.834;5.820;2024-01-15T07:31:00;3.60;;;1.98;;
84381;SDS011;74572;51.834;5.820;2024-01-15T07:33:26;3.33;;;1.58;;
84381;SDS011;74572;51.834;5.820;2024-01-15T07:35:53;3.25;;;1.67;;
84381;SDS011;74572;51.834;5.820;2024-01-15T07:38:18;2.78;;;1.65;;
84381;SDS011;74572;51.834;5.820;2024-01-15T07:40:44;3.20;;;1.45;;
84381;SDS011;74572;51.834;5.820;2024-01-15T07:43:14;2.80;;;1.70;;
84381;SDS011;74572;51.834;5.820;2024-01-15T07:45:40;4.00;;;1.70;;
84381;SDS011;74572;51.834;5.820;2024-01-15T07:48:07;2.75;;;1.33;;
84381;SDS011;74572;51.834;5.820;2024-01-15T07:50:32;2.88;;;1.50;;
84381;SDS011;74572;51.834;5.820;2024-01-15T07:52:59;4.93;;;1.70;;
84381;SDS011;74572;51.834;5.820;2024-01-15T07:55:33;2.78;;;1.50;;
84381;SDS011;74572;51.834;5.820;2024-01-15T07:57:58;2.58;;;1.20;;
84381;SDS011;74572;51.834;5.820;2024-01-15T08:00:24;5.43;;;1.20;;
84381;SDS011;74572;51.834;5.820;2024-01-15T08:02:50;0.95;;;0.73;;
84381;SDS011;74572;51.834;5.820;2024-01-15T08:05:16;2.78;;;1.38;;
84381;SDS011;74572;51.834;5.820;2024-01-15T08:07:43;2.42;;;1.00;;
84381;SDS011;74572;51.834;5.820;2024-01-15T08:10:10;3.58;;;1.35;;
84381;SDS011;74572;51.834;5.820;2024-01-15T08:12:35;1.92;;;1.15;;
84381;SDS011;74572;51.834;5.820;2024-01-15T08:15:00;1.52;;;1.08;;
84381;SDS011;74572;51.834;5.820;2024-01-15T08:17:26;3.47;;;1.25;;
84381;SDS011;74572;51.834;5.820;2024-01-15T08:19:53;2.63;;;1.33;;
84381;SDS011;74572;51.834;5.820;2024-01-15T08:22:19;1.67;;;1.00;;
84381;SDS011;74572;51.834;5.820;2024-01-15T08:24:45;1.80;;;0.75;;
84381;SDS011;74572;51.834;5.820;2024-01-15T08:27:10;3.05;;;0.88;;
84381;SDS011;74572;51.834;5.820;2024-01-15T08:29:36;2.35;;;0.82;;
84381;SDS011;74572;51.834;5.820;2024-01-15T08:32:03;2.45;;;1.10;;
84381;SDS011;74572;51.834;5.820;2024-01-15T08:34:28;2.47;;;0.70;;
84381;SDS011;74572;51.834;5.820;2024-01-15T08:36:54;2.40;;;1.02;;
84381;SDS011;74572;51.834;5.820;2024-01-15T08:39:19;2.38;;;0.70;;
84381;SDS011;74572;51.834;5.820;2024-01-15T08:41:45;3.53;;;0.90;;
84381;SDS011;74572;51.834;5.820;2024-01-15T08:44:13;2.60;;;0.90;;
84381;SDS011;74572;51.834;5.820;2024-01-15T08:46:41;1.85;;;0.95;;
84381;SDS011;74572;51.834;5.820;2024-01-15T08:49:08;2.38;;;1.17;;
84381;SDS011;74572;51.834;5.820;2024-01-15T08:51:35;2.53;;;1.20;;
84381;SDS011;74572;51.834;5.820;2024-01-15T08:54:03;2.92;;;0.90;;
84381;SDS011;74572;51.834;5.820;2024-01-15T08:56:30;2.45;;;0.82;;
84381;SDS011;74572;51.834;5.820;2024-01-15T08:58:55;4.30;;;0.95;;
84381;SDS011;74572;51.834;5.820;2024-01-15T09:01:21;2.13;;;0.90;;
84381;SDS011;74572;51.834;5.820;2024-01-15T09:03:48;3.08;;;0.80;;
84381;SDS011;74572;51.834;5.820;2024-01-15T09:06:16;1.67;;;0.88;;
84381;SDS011;74572;51.834;5.820;2024-01-15T09:08:42;3.83;;;1.00;;
84381;SDS011;74572;51.834;5.820;2024-01-15T09:11:07;1.42;;;0.50;;
84381;SDS011;74572;51.834;5.820;2024-01-15T09:13:32;0.88;;;0.55;;
84381;SDS011;74572;51.834;5.820;2024-01-15T09:15:58;4.80;;;0.70;;
84381;SDS011;74572;51.834;5.820;2024-01-15T09:18:24;1.00;;;0.40;;
84381;SDS011;74572;51.834;5.820;2024-01-15T09:20:50;1.17;;;0.32;;
84381;SDS011;74572;51.834;5.820;2024-01-15T09:23:16;5.47;;;0.40;;
84381;SDS011;74572;51.834;5.820;2024-01-15T09:25:42;1.52;;;0.50;;
84381;SDS011;74572;51.834;5.820;2024-01-15T09:28:07;3.85;;;0.43;;
84381;SDS011;74572;51.834;5.820;2024-01-15T09:30:33;0.73;;;0.30;;
84381;SDS011;74572;51.834;5.820;2024-01-15T09:32:58;1.75;;;0.30;;
84381;SDS011;74572;51.834;5.820;2024-01-15T09:35:25;1.83;;;0.30;;
84381;SDS011;74572;51.834;5.820;2024-01-15T09:37:51;0.63;;;0.10;;
84381;SDS011;74572;51.834;5.820;2024-01-15T09:40:16;0.88;;;0.20;;
84381;SDS011;74572;51.834;5.820;2024-01-15T09:42:45;1.00;;;0.20;;
84381;SDS011;74572;51.834;5.820;2024-01-15T09:45:11;2.17;;;0.32;;
84381;SDS011;74572;51.834;5.820;2024-01-15T09:47:37;1.75;;;0.30;;
84381;SDS011;74572;51.834;5.820;2024-01-15T09:50:03;0.30;;;0.30;;
84381;SDS011;74572;51.834;5.820;2024-01-15T09:52:46;2.15;;;0.30;;
84381;SDS011;74572;51.834;5.820;2024-01-15T09:55:13;0.50;;;0.30;;
84381;SDS011;74572;51.834;5.820;2024-01-15T09:57:41;1.02;;;0.28;;
84381;SDS011;74572;51.834;5.820;2024-01-15T10:00:07;2.60;;;0.43;;
84381;SDS011;74572;51.834;5.820;2024-01-15T10:02:36;1.27;;;0.43;;
84381;SDS011;74572;51.834;5.820;2024-01-15T10:05:03;1.75;;;0.40;;
84381;SDS011;74572;51.834;5.820;2024-01-15T10:07:34;1.35;;;0.45;;
84381;SDS011;74572;51.834;5.820;2024-01-15T10:10:01;0.80;;;0.50;;
84381;SDS011;74572;51.834;5.820;2024-01-15T10:12:28;2.35;;;0.60;;
84381;SDS011;74572;51.834;5.820;2024-01-15T10:14:55;1.45;;;0.80;;
84381;SDS011;74572;51.834;5.820;2024-01-15T10:17:21;1.40;;;0.80;;
84381;SDS011;74572;51.834;5.820;2024-01-15T10:19:47;1.77;;;0.73;;
84381;SDS011;74572;51.834;5.820;2024-01-15T10:22:13;1.30;;;0.68;;
84381;SDS011;74572;51.834;5.820;2024-01-15T10:24:40;2.03;;;1.08;;
84381;SDS011;74572;51.834;5.820;2024-01-15T10:27:09;1.98;;;1.10;;
84381;SDS011;74572;51.834;5.820;2024-01-15T10:29:35;1.90;;;1.20;;
84381;SDS011;74572;51.834;5.820;2024-01-15T10:32:08;1.70;;;1.23;;
84381;SDS011;74572;51.834;5.820;2024-01-15T10:34:38;2.50;;;1.83;;
84381;SDS011;74572;51.834;5.820;2024-01-15T10:37:06;4.63;;;1.98;;
84381;SDS011;74572;51.834;5.820;2024-01-15T10:39:36;4.35;;;2.17;;
84381;SDS011;74572;51.834;5.820;2024-01-15T10:42:02;3.28;;;1.73;;
84381;SDS011;74572;51.834;5.820;2024-01-15T10:44:28;3.13;;;1.73;;
84381;SDS011;74572;51.834;5.820;2024-01-15T10:46:54;2.22;;;1.60;;
84381;SDS011;74572;51.834;5.820;2024-01-15T10:49:21;3.25;;;1.52;;
84381;SDS011;74572;51.834;5.820;2024-01-15T10:51:49;2.20;;;1.50;;
84381;SDS011;74572;51.834;5.820;2024-01-15T10:54:17;3.38;;;1.30;;
84381;SDS011;74572;51.834;5.820;2024-01-15T10:56:45;2.75;;;1.13;;
84381;SDS011;74572;51.834;5.820;2024-01-15T10:59:11;5.13;;;1.30;;
84381;SDS011;74572;51.834;5.820;2024-01-15T11:01:38;2.33;;;0.88;;
84381;SDS011;74572;51.834;5.820;2024-01-15T11:04:04;2.50;;;1.50;;
84381;SDS011;74572;51.834;5.820;2024-01-15T11:06:40;2.58;;;0.82;;
84381;SDS011;74572;51.834;5.820;2024-01-15T11:09:07;1.85;;;0.80;;
84381;SDS011;74572;51.834;5.820;2024-01-15T11:11:35;5.57;;;1.27;;
84381;SDS011;74572;51.834;5.820;2024-01-15T11:14:02;2.47;;;0.65;;
84381;SDS011;74572;51.834;5.820;2024-01-15T11:16:53;2.47;;;0.85;;
84381;SDS011;74572;51.834;5.820;2024-01-15T11:19:24;2.08;;;0.38;;
84381;SDS011;74572;51.834;5.820;2024-01-15T11:21:50;4.22;;;0.68;;
84381;SDS011;74572;51.834;5.820;2024-01-15T11:27:01;2.42;;;0.50;;
84381;SDS011;74572;51.834;5.820;2024-01-15T11:31:56;2.70;;;0.85;;
84381;SDS011;74572;51.834;5.820;2024-01-15T11:35:10;2.53;;;0.30;;
84381;SDS011;74572;51.834;5.820;2024-01-15T11:37:17;1.52;;;0.30;;
84381;SDS011;74572;51.834;5.820;2024-01-15T11:39:44;1.67;;;0.40;;
84381;SDS011;74572;51.834;5.820;2024-01-15T11:42:10;1.30;;;0.15;;
84381;SDS011;74572;51.834;5.820;2024-01-15T11:44:38;4.45;;;0.35;;
84381;SDS011;74572;51.834;5.820;2024-01-15T11:47:07;3.58;;;0.63;;
84381;SDS011;74572;51.834;5.820;2024-01-15T11:52:34;2.25;;;0.43;;
84381;SDS011;74572;51.834;5.820;2024-01-15T11:58:07;2.85;;;0.40;;
84381;SDS011;74572;51.834;5.820;2024-01-15T12:00:40;1.45;;;0.30;;
84381;SDS011;74572;51.834;5.820;2024-01-15T12:03:08;3.38;;;0.50;;
84381;SDS011;74572;51.834;5.820;2024-01-15T12:05:36;2.13;;;0.52;;
84381;SDS011;74572;51.834;5.820;2024-01-15T12:08:02;3.58;;;0.50;;
84381;SDS011;74572;51.834;5.820;2024-01-15T12:10:27;1.73;;;0.68;;
84381;SDS011;74572;51.834;5.820;2024-01-15T12:15:24;0.95;;;0.22;;
84381;SDS011;74572;51.834;5.820;2024-01-15T12:17:52;6.65;;;0.60;;
84381;SDS011;74572;51.834;5.820;2024-01-15T12:20:19;1.30;;;0.20;;
84381;SDS011;74572;51.834;5.820;2024-01-15T12:22:45;1.45;;;0.65;;
84381;SDS011;74572;51.834;5.820;2024-01-15T12:25:12;1.77;;;0.30;;
84381;SDS011;74572;51.834;5.820;2024-01-15T12:27:38;1.77;;;0.13;;
84381;SDS011;74572;51.834;5.820;2024-01-15T12:30:03;0.63;;;0.20;;
84381;SDS011;74572;51.834;5.820;2024-01-15T12:32:30;3.28;;;0.43;;
84381;SDS011;74572;51.834;5.820;2024-01-15T12:34:55;0.77;;;0.38;;
84381;SDS011;74572;51.834;5.820;2024-01-15T12:37:21;2.30;;;0.50;;
84381;SDS011;74572;51.834;5.820;2024-01-15T12:39:47;0.50;;;0.20;;
84381;SDS011;74572;51.834;5.820;2024-01-15T12:42:16;2.15;;;0.25;;
84381;SDS011;74572;51.834;5.820;2024-01-15T12:44:42;2.25;;;0.47;;
84381;SDS011;74572;51.834;5.820;2024-01-15T12:47:11;1.27;;;0.45;;
84381;SDS011;74572;51.834;5.820;2024-01-15T12:49:37;1.85;;;0.40;;
84381;SDS011;74572;51.834;5.820;2024-01-15T12:52:07;1.20;;;0.30;;
84381;SDS011;74572;51.834;5.820;2024-01-15T12:54:34;2.10;;;0.52;;
84381;SDS011;74572;51.834;5.820;2024-01-15T12:56:59;2.50;;;0.60;;
84381;SDS011;74572;51.834;5.820;2024-01-15T12:59:25;1.15;;;0.45;;
84381;SDS011;74572;51.834;5.820;2024-01-15T13:01:50;2.53;;;0.57;;
84381;SDS011;74572;51.834;5.820;2024-01-15T13:04:24;1.80;;;0.45;;
84381;SDS011;74572;51.834;5.820;2024-01-15T13:06:50;2.67;;;0.45;;
84381;SDS011;74572;51.834;5.820;2024-01-15T13:09:16;1.67;;;0.57;;
84381;SDS011;74572;51.834;5.820;2024-01-15T13:11:44;2.13;;;0.60;;
84381;SDS011;74572;51.834;5.820;2024-01-15T13:14:10;2.28;;;0.40;;
84381;SDS011;74572;51.834;5.820;2024-01-15T13:16:36;1.38;;;0.45;;
84381;SDS011;74572;51.834;5.820;2024-01-15T13:19:01;2.67;;;0.50;;
84381;SDS011;74572;51.834;5.820;2024-01-15T13:21:29;4.88;;;0.65;;
84381;SDS011;74572;51.834;5.820;2024-01-15T13:23:55;1.33;;;0.40;;
84381;SDS011;74572;51.834;5.820;2024-01-15T13:26:20;0.65;;;0.30;;
84381;SDS011;74572;51.834;5.820;2024-01-15T13:28:46;3.83;;;0.43;;
84381;SDS011;74572;51.834;5.820;2024-01-15T13:31:11;3.93;;;0.60;;
84381;SDS011;74572;51.834;5.820;2024-01-15T13:33:37;2.53;;;0.50;;
84381;SDS011;74572;51.834;5.820;2024-01-15T13:36:05;2.65;;;0.38;;
84381;SDS011;74572;51.834;5.820;2024-01-15T13:38:35;0.95;;;0.47;;
84381;SDS011;74572;51.834;5.820;2024-01-15T13:41:03;5.32;;;0.60;;
84381;SDS011;74572;51.834;5.820;2024-01-15T13:43:29;1.13;;;0.30;;
84381;SDS011;74572;51.834;5.820;2024-01-15T13:45:55;2.25;;;0.20;;
84381;SDS011;74572;51.834;5.820;2024-01-15T13:48:23;3.05;;;0.63;;
84381;SDS011;74572;51.834;5.820;2024-01-15T13:50:49;3.80;;;0.30;;
84381;SDS011;74572;51.834;5.820;2024-01-15T13:53:15;5.47;;;0.63;;
84381;SDS011;74572;51.834;5.820;2024-01-15T13:55:41;1.90;;;0.38;;
84381;SDS011;74572;51.834;5.820;2024-01-15T13:58:06;3.72;;;0.75;;
84381;SDS011;74572;51.834;5.820;2024-01-15T14:00:32;2.87;;;0.43;;
84381;SDS011;74572;51.834;5.820;2024-01-15T14:02:58;1.60;;;0.40;;
84381;SDS011;74572;51.834;5.820;2024-01-15T14:05:24;2.78;;;0.50;;
84381;SDS011;74572;51.834;5.820;2024-01-15T14:07:49;4.45;;;0.50;;
84381;SDS011;74572;51.834;5.820;2024-01-15T14:10:14;3.20;;;0.47;;
84381;SDS011;74572;51.834;5.820;2024-01-15T14:12:40;1.30;;;0.45;;
84381;SDS011;74572;51.834;5.820;2024-01-15T14:15:07;1.85;;;0.40;;
84381;SDS011;74572;51.834;5.820;2024-01-15T14:17:33;1.20;;;0.60;;
84381;SDS011;74572;51.834;5.820;2024-01-15T14:19:58;1.20;;;0.40;;
84381;SDS011;74572;51.834;5.820;2024-01-15T14:22:24;3.40;;;0.45;;
84381;SDS011;74572;51.834;5.820;2024-01-15T14:24:49;0.75;;;0.40;;
84381;SDS011;74572;51.834;5.820;2024-01-15T14:27:15;2.50;;;0.20;;
84381;SDS011;74572;51.834;5.820;2024-01-15T14:29:41;3.15;;;0.70;;
84381;SDS011;74572;51.834;5.820;2024-01-15T14:32:07;3.85;;;1.10;;
84381;SDS011;74572;51.834;5.820;2024-01-15T14:34:32;0.77;;;0.40;;
84381;SDS011;74572;51.834;5.820;2024-01-15T14:36:57;2.57;;;0.40;;
84381;SDS011;74572;51.834;5.820;2024-01-15T14:39:23;1.90;;;0.50;;
84381;SDS011;74572;51.834;5.820;2024-01-15T14:41:49;3.78;;;0.45;;
84381;SDS011;74572;51.834;5.820;2024-01-15T14:44:15;4.22;;;0.63;;
84381;SDS011;74572;51.834;5.820;2024-01-15T14:46:43;2.08;;;0.57;;
84381;SDS011;74572;51.834;5.820;2024-01-15T14:49:09;3.67;;;0.50;;
84381;SDS011;74572;51.834;5.820;2024-01-15T14:51:34;7.68;;;0.73;;
84381;SDS011;74572;51.834;5.820;2024-01-15T14:54:00;0.68;;;0.25;;
84381;SDS011;74572;51.834;5.820;2024-01-15T14:56:25;5.10;;;0.77;;
84381;SDS011;74572;51.834;5.820;2024-01-15T14:58:52;2.13;;;0.55;;